Hlavní strana
METAR-TAF:

METAR-TAF

Letiště :

Cairo Regional Airport

Cairo, Illinois, Spojené státy americké

zeměpisná šířka: 37-03-52N, zeměpisná délka: 089-13-10W, výška: 98 m

Aktuální stav počasí

Zpráva byla vytvořena před 24 minutami, v 23:55 UTC
Bezvětří
Teplota 5°C
Vlhkost vzduchu 81%
Tlak 1025 hPa
Viditelnost: 16.1 km
Jasno

METAR: KCIR 072355Z AUTO 00000KT 10SM CLR 05/02 A3027 RMK AO2 T00460024 10098 20043

Čas: 18:19 (00:19 UTC)


TAF: chybějící

Stav a předpovědi počasí z více než 4 000 letišť (zprávy METAR a TAF).

Červené a žluté tečky na mapě představují dostupné meteorologické stanice.

Když kurzor umístíte na tečku, zobrazí se název stanice.

Pak kliknutím zobrazíte stav a předpověď počasí.

Chcete-li změnit mapu, kliknutím na zelené tlačítko se znaménkem +mapu přiblížíte, kliknutím na zelené tlačítko se znaménkem – mapu oddálíte a kliknutím na zelené šipky přejdete na sousední mapy.


METAR-TAF: